Jhang Weather



Jhang's Current Weather

Temprature 37.01o clear sky

clear sky

Rain: 0 %

Min Temprature37.01o
Max Temprature37.01o
Humidity22
Wind Speed1.78 m/h
Sun Rise05:15:27
Sun Set19:15:39
Current Time: 24-Jul-2021 15:58:18
Lat/Lon: 33.6748, 72.6963




Jhang's Geo Location



Jhang's Weather Forecast

Time Overall Temp Min Temp Max Temp Humidity Wind Speed Rain
24-Jul-2021 (Sat)
17:00:00 clear sky 37.010 37.010 40.380 22 1.82 m/h 0 %
20:00:00 clear sky 37.100 37.100 37.270 24 2.16 m/h 0 %
23:00:00 clear sky 35.970 35.450 35.970 28 0.71 m/h 0 %
25-Jul-2021 (Sun)
02:00:00 clear sky 33.270 33.270 33.270 38 2.67 m/h 0 %
05:00:00 scattered clouds 31.760 31.760 31.760 43 3.29 m/h 0 %
08:00:00 overcast clouds 34.840 34.840 34.840 40 4.14 m/h 0 %
11:00:00 overcast clouds 38.800 38.800 38.800 29 2.97 m/h 0 %
14:00:00 broken clouds 41.230 41.230 41.230 23 2.54 m/h 0 %
17:00:00 scattered clouds 41.690 41.690 41.690 21 2.34 m/h 0 %
20:00:00 clear sky 38.380 38.380 38.380 27 1.68 m/h 0 %
23:00:00 clear sky 35.870 35.870 35.870 35 4.78 m/h 0 %
26-Jul-2021 (Mon)
02:00:00 broken clouds 32.910 32.910 32.910 57 7.44 m/h 0 %
05:00:00 broken clouds 31.690 31.690 31.690 61 5.74 m/h 0 %
08:00:00 broken clouds 33.680 33.680 33.680 55 6.89 m/h 0 %
11:00:00 broken clouds 37.550 37.550 37.550 42 5.43 m/h 0 %
14:00:00 broken clouds 40.330 40.330 40.330 32 2.96 m/h 0 %
17:00:00 scattered clouds 41.120 41.120 41.120 29 2.51 m/h 0 %
20:00:00 broken clouds 36.800 36.800 36.800 41 5 m/h 0 %
23:00:00 broken clouds 32.880 32.880 32.880 59 9.73 m/h 0 %
27-Jul-2021 (Tue)
02:00:00 overcast clouds 30.660 30.660 30.660 70 7.71 m/h 0 %
05:00:00 overcast clouds 29.610 29.610 29.610 73 6.15 m/h 0 %
08:00:00 overcast clouds 29.930 29.930 29.930 71 5.88 m/h 0 %
11:00:00 broken clouds 34.290 34.290 34.290 53 6.18 m/h 0 %
14:00:00 few clouds 38.090 38.090 38.090 41 5.04 m/h 0 %
17:00:00 broken clouds 36.420 36.420 36.420 46 7.48 m/h 0 %
20:00:00 scattered clouds 32.220 32.220 32.220 61 10.38 m/h 0 %
23:00:00 moderate rain 28.040 28.040 28.040 78 9.58 m/h 326 %
28-Jul-2021 (Wed)
02:00:00 light rain 27.360 27.360 27.360 80 9.06 m/h 222 %
05:00:00 light rain 26.850 26.850 26.850 82 6.1 m/h 135 %
08:00:00 light rain 27.070 27.070 27.070 80 4.92 m/h 51 %
11:00:00 light rain 27.010 27.010 27.010 82 6.11 m/h 216 %
14:00:00 light rain 27.520 27.520 27.520 79 5.92 m/h 137 %
17:00:00 light rain 27.320 27.320 27.320 79 7.42 m/h 33 %
20:00:00 light rain 26.020 26.020 26.020 82 4 m/h 125 %
23:00:00 light rain 25.890 25.890 25.890 83 1.13 m/h 203 %
29-Jul-2021 (Thu)
02:00:00 moderate rain 24.660 24.660 24.660 90 1.5 m/h 573 %
05:00:00 moderate rain 24.570 24.570 24.570 91 1.86 m/h 702 %
08:00:00 moderate rain 25.720 25.720 25.720 85 2.47 m/h 398 %
11:00:00 light rain 29.460 29.460 29.460 67 1.99 m/h 31 %
14:00:00 light rain 31.810 31.810 31.810 58 1.58 m/h 95 %

Famous Cities (60)